createdAt,value
2018-10-21T00:00:18.856Z,82.62
2018-10-21T00:01:18.767Z,83.37
2018-10-21T00:02:18.683Z,83.94
2018-10-21T00:03:18.713Z,84.51
2018-10-21T00:04:18.519Z,87.07
2018-10-21T00:05:18.546Z,89.91
2018-10-21T00:06:18.357Z,91.71
2018-10-21T00:07:18.355Z,93.75
2018-10-21T00:08:18.210Z,95.07
2018-10-21T00:09:18.203Z,94.89
2018-10-21T00:10:18.039Z,93.65
2018-10-21T00:11:17.959Z,89.53
2018-10-21T00:12:17.863Z,87.64
2018-10-21T00:13:17.795Z,87.35
2018-10-21T00:14:17.705Z,87.73
2018-10-21T00:15:17.680Z,89.15
2018-10-21T00:16:17.552Z,89.34
2018-10-21T00:17:17.467Z,90.29
2018-10-21T00:18:17.378Z,89.82
2018-10-21T00:19:17.307Z,90.39
2018-10-21T00:20:17.215Z,91.52
2018-10-21T00:21:17.174Z,92.57
2018-10-21T00:22:17.056Z,93.04
2018-10-21T00:23:16.977Z,92.09
2018-10-21T00:24:16.887Z,91.81
2018-10-21T00:25:16.812Z,92.19
2018-10-21T00:26:16.727Z,92.28
2018-10-21T00:27:16.739Z,92.57
2018-10-21T00:28:16.564Z,92.57
2018-10-21T00:29:16.486Z,93.32
2018-10-21T00:30:16.401Z,93.70
2018-10-21T00:31:16.332Z,94.18
2018-10-21T00:32:16.236Z,93.51
2018-10-21T00:33:16.250Z,91.71
2018-10-21T00:34:16.077Z,89.34
2018-10-21T00:35:16.003Z,89.63
2018-10-21T00:36:15.912Z,90.77
2018-10-21T00:37:15.839Z,90.77
2018-10-21T00:38:15.749Z,89.91
2018-10-21T00:39:15.742Z,88.40
2018-10-21T00:40:15.584Z,88.96
2018-10-21T00:41:15.510Z,90.39
2018-10-21T00:42:15.423Z,91.05
2018-10-21T00:43:15.348Z,89.82
2018-10-21T00:44:15.258Z,89.34
2018-10-21T00:45:15.272Z,89.91
2018-10-21T00:46:15.099Z,89.63
2018-10-21T00:47:15.024Z,89.06
2018-10-21T00:48:14.936Z,89.53
2018-10-21T00:49:14.865Z,89.91
2018-10-21T00:50:14.771Z,89.63
2018-10-21T00:51:14.752Z,89.91
2018-10-21T00:52:14.605Z,90.20
2018-10-21T00:53:14.534Z,89.82
2018-10-21T00:54:14.441Z,89.91
2018-10-21T00:55:14.375Z,89.68
2018-10-21T00:56:14.281Z,91.14
2018-10-21T00:57:14.289Z,91.48
2018-10-21T00:58:14.118Z,92.24
2018-10-21T00:59:14.050Z,93.51
2018-10-21T01:00:13.960Z,93.61
2018-10-21T01:01:13.883Z,93.80
2018-10-21T01:02:13.792Z,93.51
2018-10-21T01:03:13.776Z,93.23
2018-10-21T01:04:13.682Z,93.99
2018-10-21T01:05:13.549Z,94.56
2018-10-21T01:06:13.464Z,94.84
2018-10-21T01:07:13.389Z,92.94
2018-10-21T01:08:13.300Z,92.33
2018-10-21T01:09:13.309Z,91.48
2018-10-21T01:10:13.139Z,91.52
2018-10-21T01:11:13.066Z,92.28
2018-10-21T01:12:12.976Z,92.24
2018-10-21T01:13:12.901Z,91.76
2018-10-21T01:14:12.811Z,90.81
2018-10-21T01:15:12.807Z,91.24
2018-10-21T01:16:12.647Z,92.90
2018-10-21T01:17:12.580Z,93.65
2018-10-21T01:18:12.484Z,94.08
2018-10-21T01:19:12.412Z,95.17
2018-10-21T01:20:12.324Z,96.02
2018-10-21T01:21:12.276Z,96.73
2018-10-21T01:22:12.158Z,96.36
2018-10-21T01:23:12.086Z,95.31
2018-10-21T01:24:11.993Z,91.52
2018-10-21T01:25:11.929Z,91.14
2018-10-21T01:26:11.827Z,90.86
2018-10-21T01:27:11.799Z,90.86
2018-10-21T01:28:11.667Z,91.24
2018-10-21T01:29:11.590Z,91.10
2018-10-21T01:30:11.508Z,91.48
2018-10-21T01:31:11.430Z,92.76
2018-10-21T01:32:11.341Z,92.99
2018-10-21T01:33:11.277Z,93.65
2018-10-21T01:34:11.176Z,94.89
2018-10-21T01:35:11.103Z,95.88
2018-10-21T01:36:11.112Z,96.73
2018-10-21T01:37:11.001Z,97.02
2018-10-21T01:38:10.878Z,98.06
2018-10-21T01:39:10.841Z,99.01
2018-10-21T01:40:10.688Z,99.99
2018-10-21T01:41:10.612Z,99.99
2018-10-21T01:42:10.523Z,99.48
2018-10-21T01:43:10.451Z,98.91
2018-10-21T01:44:10.359Z,98.91
2018-10-21T01:45:10.388Z,98.25
2018-10-21T01:46:10.195Z,98.72
2018-10-21T01:47:10.122Z,99.20
2018-10-21T01:48:10.034Z,99.29
2018-10-21T01:49:09.959Z,99.99
2018-10-21T01:50:09.868Z,99.99
2018-10-21T01:51:09.853Z,99.99
2018-10-21T01:52:09.704Z,99.99
2018-10-21T01:53:09.628Z,99.99
2018-10-21T01:54:09.543Z,99.99
2018-10-21T01:55:09.464Z,99.99
2018-10-21T01:56:09.381Z,99.99
2018-10-21T01:57:09.399Z,99.99
2018-10-21T01:58:09.218Z,99.99
2018-10-21T01:59:09.143Z,99.99
2018-10-21T02:00:09.052Z,99.99
2018-10-21T02:01:08.978Z,99.99
2018-10-21T02:02:08.889Z,99.99
2018-10-21T02:03:08.854Z,99.99
2018-10-21T02:04:08.723Z,99.99
2018-10-21T02:05:08.661Z,99.99
2018-10-21T02:06:08.566Z,99.99
2018-10-21T02:07:08.484Z,99.99
2018-10-21T02:08:08.398Z,99.99
2018-10-21T02:09:08.387Z,99.99
2018-10-21T02:10:08.234Z,99.99
2018-10-21T02:11:08.161Z,99.99
2018-10-21T02:12:08.068Z,99.99
2018-10-21T02:13:08.015Z,99.99
2018-10-21T02:14:07.932Z,99.99
2018-10-21T02:15:07.850Z,99.99
2018-10-21T02:16:07.744Z,99.99
2018-10-21T02:17:07.682Z,99.99
2018-10-21T02:18:07.592Z,99.99
2018-10-21T02:19:07.511Z,99.99
2018-10-21T02:20:07.421Z,99.99
2018-10-21T02:21:07.354Z,99.99
2018-10-21T02:22:07.254Z,99.99
2018-10-21T02:23:07.185Z,99.99
2018-10-21T02:24:07.096Z,99.99
2018-10-21T02:25:07.017Z,99.99
2018-10-21T02:26:06.961Z,99.99
2018-10-21T02:27:06.886Z,99.99
2018-10-21T02:28:06.802Z,99.99
2018-10-21T02:29:06.694Z,99.99
2018-10-21T02:30:06.608Z,99.99
2018-10-21T02:31:06.531Z,99.99
2018-10-21T02:32:06.443Z,99.99
2018-10-21T02:33:06.457Z,99.99
2018-10-21T02:34:06.274Z,99.99
2018-10-21T02:35:06.210Z,99.99
2018-10-21T02:36:06.115Z,99.99
2018-10-21T02:37:06.043Z,99.99
2018-10-21T02:38:05.950Z,99.99
2018-10-21T02:39:05.896Z,99.99
2018-10-21T02:40:05.791Z,99.99
2018-10-21T02:41:05.717Z,99.99
2018-10-21T02:42:05.627Z,99.99
2018-10-21T02:43:05.551Z,99.99
2018-10-21T02:44:05.461Z,99.99
2018-10-21T02:45:05.416Z,99.99
2018-10-21T02:46:05.300Z,99.99
2018-10-21T02:47:05.228Z,99.99
2018-10-21T02:48:05.133Z,99.99
2018-10-21T02:49:05.063Z,99.99
2018-10-21T02:50:04.977Z,99.99
2018-10-21T02:51:04.916Z,99.99
2018-10-21T02:52:04.806Z,99.99
2018-10-21T02:53:04.737Z,99.99
2018-10-21T02:54:04.646Z,99.99
2018-10-21T02:55:04.575Z,99.99
2018-10-21T02:56:04.482Z,99.99
2018-10-21T02:57:04.478Z,99.99
2018-10-21T02:58:04.323Z,99.99
2018-10-21T02:59:04.251Z,99.99
2018-10-21T03:00:04.159Z,99.99
2018-10-21T03:01:04.087Z,99.99
2018-10-21T03:02:03.993Z,99.99
2018-10-21T03:03:03.929Z,99.99
2018-10-21T03:04:03.833Z,99.99
2018-10-21T03:05:03.759Z,99.99
2018-10-21T03:06:03.672Z,99.99
2018-10-21T03:07:03.599Z,99.99
2018-10-21T03:08:03.508Z,99.99
2018-10-21T03:09:03.473Z,99.99
2018-10-21T03:10:03.348Z,99.99
2018-10-21T03:11:03.273Z,99.99
2018-10-21T03:12:03.185Z,99.99
2018-10-21T03:13:03.111Z,99.99
2018-10-21T03:14:03.022Z,99.99
2018-10-21T03:15:03.013Z,99.99
2018-10-21T03:16:02.861Z,99.99
2018-10-21T03:17:02.795Z,99.99
2018-10-21T03:18:02.697Z,99.99
2018-10-21T03:19:02.626Z,99.99
2018-10-21T03:20:02.534Z,99.99
2018-10-21T03:21:02.518Z,99.99
2018-10-21T03:22:02.373Z,99.99
2018-10-21T03:23:02.297Z,99.99
2018-10-21T03:24:02.230Z,99.99
2018-10-21T03:25:02.137Z,99.99
2018-10-21T03:26:02.049Z,99.99
2018-10-21T03:27:01.994Z,99.99
2018-10-21T03:28:01.886Z,99.99
2018-10-21T03:29:01.814Z,99.99
2018-10-21T03:30:01.726Z,99.99
2018-10-21T03:31:01.652Z,99.99
2018-10-21T03:32:01.556Z,99.99
2018-10-21T03:33:01.582Z,99.99
2018-10-21T03:34:01.509Z,99.99
2018-10-21T03:35:01.321Z,99.99
2018-10-21T03:36:01.243Z,99.99
2018-10-21T03:37:01.158Z,99.99
2018-10-21T03:38:01.077Z,99.99
2018-10-21T03:39:01.010Z,99.99
2018-10-21T03:40:00.928Z,99.99
2018-10-21T03:41:00.835Z,99.99
2018-10-21T03:42:00.747Z,99.99
2018-10-21T03:43:00.678Z,99.99
2018-10-21T03:44:00.588Z,99.99
2018-10-21T03:45:00.525Z,99.99
2018-10-21T03:46:00.524Z,99.99
2018-10-21T03:47:00.348Z,99.99
2018-10-21T03:48:00.261Z,99.99
2018-10-21T03:49:00.190Z,99.99
2018-10-21T03:50:00.098Z,99.99
2018-10-21T03:51:00.027Z,99.99
2018-10-21T03:51:59.946Z,99.99
2018-10-21T03:52:59.862Z,99.99
2018-10-21T03:53:59.774Z,99.99
2018-10-21T03:54:59.700Z,99.99
2018-10-21T03:55:59.614Z,99.99
2018-10-21T03:56:59.540Z,99.99
2018-10-21T03:57:59.455Z,99.99
2018-10-21T03:58:59.382Z,99.99
2018-10-21T03:59:59.285Z,99.99
2018-10-21T04:00:59.234Z,99.99
2018-10-21T04:01:59.127Z,99.99
2018-10-21T04:02:59.142Z,99.99
2018-10-21T04:03:59.048Z,99.99
2018-10-21T04:04:58.956Z,99.99
2018-10-21T04:05:58.799Z,99.99
2018-10-21T04:06:58.734Z,99.99
2018-10-21T04:07:58.639Z,99.99
2018-10-21T04:08:58.672Z,99.99
2018-10-21T04:09:58.500Z,99.99
2018-10-21T04:10:58.481Z,99.99
2018-10-21T04:11:58.313Z,99.99
2018-10-21T04:12:58.288Z,99.99
2018-10-21T04:13:58.158Z,99.99
2018-10-21T04:14:58.083Z,99.99
2018-10-21T04:15:58.001Z,99.99
2018-10-21T04:16:57.917Z,99.99
2018-10-21T04:17:57.825Z,99.99
2018-10-21T04:18:57.817Z,99.99
2018-10-21T04:19:57.666Z,99.99
2018-10-21T04:20:57.625Z,99.99
2018-10-21T04:21:57.531Z,99.99
2018-10-21T04:22:57.435Z,99.99
2018-10-21T04:23:57.342Z,99.99
2018-10-21T04:24:57.267Z,99.99
2018-10-21T04:25:57.181Z,99.99
2018-10-21T04:26:57.108Z,99.99
2018-10-21T04:27:57.051Z,99.99
2018-10-21T04:28:56.940Z,99.99
2018-10-21T04:29:56.857Z,99.99
2018-10-21T04:30:56.874Z,99.99
2018-10-21T04:31:56.693Z,99.99
2018-10-21T04:32:56.625Z,99.99
2018-10-21T04:33:56.629Z,99.99
2018-10-21T04:34:56.490Z,99.99
2018-10-21T04:35:56.416Z,99.99
2018-10-21T04:36:56.402Z,99.99
2018-10-21T04:37:56.208Z,99.99
2018-10-21T04:38:56.143Z,99.99
2018-10-21T04:39:56.083Z,99.99
2018-10-21T04:40:56.019Z,99.99
2018-10-21T04:41:55.885Z,99.99
2018-10-21T04:42:55.827Z,99.99
2018-10-21T04:43:55.724Z,99.99
2018-10-21T04:44:55.740Z,99.99
2018-10-21T04:45:55.607Z,99.99
2018-10-21T04:46:56.601Z,99.99
2018-10-21T04:47:55.399Z,99.99
2018-10-21T04:48:55.324Z,99.99
2018-10-21T04:49:55.235Z,99.99
2018-10-21T04:50:55.164Z,99.99
2018-10-21T04:51:55.121Z,99.99
2018-10-21T04:52:55.005Z,99.99
2018-10-21T04:53:54.930Z,99.99
2018-10-21T04:54:54.845Z,99.99
2018-10-21T04:55:54.749Z,99.99
2018-10-21T04:56:54.677Z,99.96
2018-10-21T04:57:54.592Z,99.77
2018-10-21T04:58:54.516Z,98.63
2018-10-21T04:59:54.428Z,99.58
2018-10-21T05:00:54.412Z,99.68
2018-10-21T05:01:54.266Z,98.87
2018-10-21T05:02:54.192Z,99.99
2018-10-21T05:03:54.126Z,99.91
2018-10-21T05:04:54.131Z,99.53
2018-10-21T05:05:53.938Z,99.44
2018-10-21T05:06:53.938Z,99.99
2018-10-21T05:07:53.775Z,99.99
2018-10-21T05:08:53.702Z,99.99
2018-10-21T05:09:53.619Z,99.99
2018-10-21T05:10:53.553Z,99.99
2018-10-21T05:11:53.455Z,99.99
2018-10-21T05:12:53.379Z,99.99
2018-10-21T05:13:53.291Z,99.99
2018-10-21T05:14:53.277Z,99.99
2018-10-21T05:15:53.126Z,99.99
2018-10-21T05:16:53.085Z,99.99
2018-10-21T05:17:52.965Z,99.99
2018-10-21T05:18:52.894Z,99.99
2018-10-21T05:19:52.802Z,99.06
2018-10-21T05:20:52.803Z,98.11
2018-10-21T05:21:52.638Z,98.58
2018-10-21T05:22:52.614Z,97.83
2018-10-21T05:23:52.481Z,98.11
2018-10-21T05:24:52.420Z,98.21
2018-10-21T05:25:52.312Z,98.21
2018-10-21T05:26:52.333Z,98.68
2018-10-21T05:27:52.160Z,99.53
2018-10-21T05:28:52.140Z,99.99
2018-10-21T05:29:51.990Z,99.99
2018-10-21T05:30:51.946Z,99.44
2018-10-21T05:31:51.827Z,98.39
2018-10-21T05:32:51.855Z,97.59
2018-10-21T05:33:51.663Z,97.26
2018-10-21T05:34:51.666Z,96.83
2018-10-21T05:35:51.501Z,96.92
2018-10-21T05:36:51.479Z,96.07
2018-10-21T05:37:51.387Z,96.45
2018-10-21T05:38:51.268Z,94.46
2018-10-21T05:39:51.184Z,93.70
2018-10-21T05:40:51.102Z,93.70
2018-10-21T05:41:51.013Z,94.08
2018-10-21T05:42:50.940Z,94.46
2018-10-21T05:43:50.852Z,93.99
2018-10-21T05:44:50.777Z,92.94
2018-10-21T05:45:50.687Z,92.38
2018-10-21T05:46:50.707Z,92.57
2018-10-21T05:47:50.524Z,92.38
2018-10-21T05:48:50.451Z,92.28
2018-10-21T05:49:50.361Z,92.66
2018-10-21T05:50:50.340Z,93.32
2018-10-21T05:51:50.201Z,93.70
2018-10-21T05:52:50.128Z,93.32
2018-10-21T05:53:50.031Z,93.99
2018-10-21T05:54:50.061Z,94.65
2018-10-21T05:55:49.873Z,96.17
2018-10-21T05:56:49.798Z,97.11
2018-10-21T05:57:49.713Z,96.92
2018-10-21T05:58:49.633Z,96.73
2018-10-21T05:59:49.543Z,97.40
2018-10-21T06:00:49.470Z,98.35
2018-10-21T06:01:49.383Z,99.29
2018-10-21T06:02:49.364Z,99.99
2018-10-21T06:03:49.220Z,99.99
2018-10-21T06:04:49.143Z,99.99
2018-10-21T06:05:49.049Z,99.99
2018-10-21T06:06:48.983Z,99.99
2018-10-21T06:07:48.893Z,99.99
2018-10-21T06:08:48.815Z,99.99
2018-10-21T06:09:48.727Z,99.99
2018-10-21T06:10:48.654Z,99.99
2018-10-21T06:11:48.566Z,99.99
2018-10-21T06:12:48.491Z,99.99
2018-10-21T06:13:48.402Z,99.99
2018-10-21T06:14:48.326Z,99.99
2018-10-21T06:15:48.297Z,99.99
2018-10-21T06:16:48.162Z,99.99
2018-10-21T06:17:48.078Z,96.73
2018-10-21T06:18:48.025Z,93.89
2018-10-21T06:19:47.970Z,93.61
2018-10-21T06:20:47.827Z,94.18
2018-10-21T06:21:47.783Z,94.65
2018-10-21T06:22:47.662Z,95.03
2018-10-21T06:23:47.759Z,94.84
2018-10-21T06:24:47.502Z,95.03
2018-10-21T06:25:47.425Z,94.93
2018-10-21T06:26:47.339Z,94.74
2018-10-21T06:27:47.373Z,94.74
2018-10-21T06:28:47.175Z,95.31
2018-10-21T06:29:47.121Z,95.98
2018-10-21T06:30:47.016Z,96.64
2018-10-21T06:31:47.033Z,98.06
2018-10-21T06:32:46.849Z,99.39
2018-10-21T06:33:46.878Z,99.58
2018-10-21T06:34:46.683Z,99.99
2018-10-21T06:35:46.657Z,99.99
2018-10-21T06:36:46.580Z,99.99
2018-10-21T06:37:46.457Z,99.99
2018-10-21T06:38:46.358Z,99.99
2018-10-21T06:39:46.369Z,99.99
2018-10-21T06:40:46.194Z,99.99
2018-10-21T06:41:46.177Z,99.99
2018-10-21T06:42:46.029Z,99.99
2018-10-21T06:43:45.982Z,99.99
2018-10-21T06:44:45.863Z,99.96
2018-10-21T06:45:45.955Z,99.96
2018-10-21T06:46:45.707Z,99.99
2018-10-21T06:47:45.706Z,99.99
2018-10-21T06:48:45.545Z,99.99
2018-10-21T06:49:45.514Z,99.99
2018-10-21T06:50:45.375Z,99.99
2018-10-21T06:51:45.323Z,99.99
2018-10-21T06:52:45.211Z,99.99
2018-10-21T06:53:45.238Z,99.99
2018-10-21T06:54:45.049Z,99.99
2018-10-21T06:55:45.041Z,99.99
2018-10-21T06:56:45.044Z,99.99
2018-10-21T06:57:44.922Z,99.99
2018-10-21T06:58:44.721Z,99.99
2018-10-21T06:59:44.656Z,99.99
2018-10-21T07:00:44.557Z,99.99
2018-10-21T07:01:44.570Z,99.99
2018-10-21T07:02:44.401Z,99.99
2018-10-21T07:03:44.379Z,99.99
2018-10-21T07:04:44.292Z,99.99
2018-10-21T07:05:44.186Z,99.99
2018-10-21T07:06:44.068Z,99.99
2018-10-21T07:07:44.100Z,99.99
2018-10-21T07:08:43.901Z,99.99
2018-10-21T07:09:43.907Z,99.99
2018-10-21T07:10:43.741Z,99.99
2018-10-21T07:11:43.715Z,99.99
2018-10-21T07:12:43.574Z,99.99
2018-10-21T07:13:43.521Z,99.99
2018-10-21T07:14:43.418Z,99.99
2018-10-21T07:15:43.538Z,99.99
2018-10-21T07:16:43.337Z,99.99
2018-10-21T07:17:43.242Z,99.99
2018-10-21T07:18:43.088Z,99.99
2018-10-21T07:19:43.053Z,99.99
2018-10-21T07:20:42.925Z,99.99
2018-10-21T07:21:42.964Z,99.99
2018-10-21T07:22:42.763Z,99.77
2018-10-21T07:23:42.769Z,99.68
2018-10-21T07:24:42.598Z,99.26
2018-10-21T07:25:42.580Z,97.36
2018-10-21T07:26:42.441Z,96.69
2018-10-21T07:27:42.387Z,97.17
2018-10-21T07:28:42.271Z,97.17
2018-10-21T07:29:42.298Z,96.36
2018-10-21T07:30:42.118Z,95.70
2018-10-21T07:31:42.116Z,95.03
2018-10-21T07:32:41.951Z,94.08
2018-10-21T07:33:41.924Z,92.27
2018-10-21T07:34:41.791Z,91.13
2018-10-21T07:35:41.826Z,90.70
2018-10-21T07:36:42.597Z,90.80
2018-10-21T07:37:41.632Z,92.61
2018-10-21T07:38:41.465Z,92.99
2018-10-21T07:39:41.448Z,92.89
2018-10-21T07:40:41.311Z,91.89
2018-10-21T07:41:41.252Z,92.18
2018-10-21T07:42:41.143Z,91.70
2018-10-21T07:43:41.160Z,90.28
2018-10-21T07:44:40.990Z,89.70
2018-10-21T07:45:40.972Z,89.61
2018-10-21T07:46:40.824Z,89.42
2018-10-21T07:47:40.899Z,89.70
2018-10-21T07:48:40.662Z,89.42
2018-10-21T07:49:40.696Z,89.37
2018-10-21T07:50:40.508Z,89.47
2018-10-21T07:51:40.501Z,89.08
2018-10-21T07:52:40.344Z,89.65
2018-10-21T07:53:40.307Z,89.37
2018-10-21T07:54:40.182Z,88.70
2018-10-21T07:55:40.145Z,88.32
2018-10-21T07:56:40.021Z,87.75
2018-10-21T07:57:40.028Z,87.18
2018-10-21T07:58:39.862Z,86.75
2018-10-21T07:59:39.836Z,87.03
2018-10-21T08:00:39.703Z,86.36
2018-10-21T08:01:39.644Z,85.70
2018-10-21T08:02:39.544Z,84.65
2018-10-21T08:03:39.557Z,84.08
2018-10-21T08:04:39.429Z,83.74
2018-10-21T08:05:39.366Z,82.60
2018-10-21T08:06:39.228Z,82.98
2018-10-21T08:07:39.178Z,82.50
2018-10-21T08:08:39.120Z,83.26
2018-10-21T08:09:39.087Z,84.41
2018-10-21T08:10:38.905Z,83.69
2018-10-21T08:11:43.704Z,82.26
2018-10-21T08:12:38.748Z,82.07
2018-10-21T08:13:43.719Z,82.35
2018-10-21T08:14:38.600Z,81.78
2018-10-21T08:15:39.535Z,81.97
2018-10-21T08:16:38.432Z,81.97
2018-10-21T08:17:38.419Z,81.30
2018-10-21T08:18:38.277Z,82.01
2018-10-21T08:19:38.230Z,80.49
2018-10-21T08:20:38.113Z,79.25
2018-10-21T08:21:38.149Z,78.86
2018-10-21T08:22:37.960Z,78.58
2018-10-21T08:23:37.950Z,78.77
2018-10-21T08:24:37.800Z,78.96
2018-10-21T08:25:37.758Z,79.28
2018-10-21T08:26:37.641Z,78.91
2018-10-21T08:27:37.670Z,78.33
2018-10-21T08:28:37.486Z,77.67
2018-10-21T08:29:37.481Z,76.81
2018-10-21T08:30:38.162Z,75.28
2018-10-21T08:31:37.287Z,74.90
2018-10-21T08:32:37.172Z,74.04
2018-10-21T08:33:37.199Z,74.08
2018-10-21T08:34:37.015Z,74.46
2018-10-21T08:35:37.005Z,74.65
2018-10-21T08:36:36.859Z,73.88
2018-10-21T08:37:36.815Z,73.22
2018-10-21T08:38:36.703Z,73.50
2018-10-21T08:39:36.724Z,73.22
2018-10-21T08:40:36.545Z,74.49
2018-10-21T08:41:36.539Z,74.11
2018-10-21T08:42:36.392Z,72.20
2018-10-21T08:43:36.340Z,71.72
2018-10-21T08:44:36.233Z,71.92
2018-10-21T08:45:36.254Z,71.53
2018-10-21T08:46:36.137Z,72.78
2018-10-21T08:47:36.068Z,73.92
2018-10-21T08:48:35.922Z,73.16
2018-10-21T08:49:35.868Z,72.62
2018-10-21T08:50:35.771Z,72.05
2018-10-21T08:51:35.781Z,71.63
2018-10-21T08:52:35.610Z,72.91
2018-10-21T08:53:35.591Z,71.76
2018-10-21T08:54:35.456Z,71.76
2018-10-21T08:55:35.398Z,71.95
2018-10-21T08:56:35.302Z,71.19
2018-10-21T08:57:35.303Z,71.95
2018-10-21T08:58:35.148Z,71.86
2018-10-21T08:59:35.123Z,71.67
2018-10-21T09:00:34.996Z,70.33
2018-10-21T09:01:35.033Z,69.76
2018-10-21T09:02:34.836Z,70.23
2018-10-21T09:03:34.836Z,70.14
2018-10-21T09:04:34.681Z,69.79
2018-10-21T09:05:34.644Z,68.80
2018-10-21T09:06:34.528Z,68.51
2018-10-21T09:07:34.556Z,68.90
2018-10-21T09:08:34.369Z,70.07
2018-10-21T09:09:34.364Z,69.70
2018-10-21T09:10:34.279Z,69.70
2018-10-21T09:11:34.172Z,69.89
2018-10-21T09:12:34.064Z,69.31
2018-10-21T09:13:34.082Z,68.55
2018-10-21T09:14:33.908Z,68.10
2018-10-21T09:15:33.966Z,66.63
2018-10-21T09:16:33.774Z,66.47
2018-10-21T09:17:33.701Z,68.01
2018-10-21T09:18:33.604Z,67.05
2018-10-21T09:19:33.611Z,67.14
2018-10-21T09:20:33.451Z,67.05
2018-10-21T09:21:33.418Z,66.96
2018-10-21T09:22:33.300Z,67.05
2018-10-21T09:23:33.342Z,66.80
2018-10-21T09:24:33.143Z,66.28
2018-10-21T09:25:33.138Z,65.90
2018-10-21T09:26:32.991Z,65.71
2018-10-21T09:27:32.946Z,65.61
2018-10-21T09:28:32.836Z,66.76
2018-10-21T09:29:32.855Z,65.90
2018-10-21T09:30:32.685Z,66.09
2018-10-21T09:31:32.668Z,65.71
2018-10-21T09:32:32.530Z,65.42
2018-10-21T09:33:32.481Z,66.00
2018-10-21T09:34:32.381Z,66.70
2018-10-21T09:35:32.405Z,66.51
2018-10-21T09:36:32.228Z,66.13
2018-10-21T09:37:32.196Z,66.32
2018-10-21T09:38:32.076Z,66.03
2018-10-21T09:39:32.104Z,64.98
2018-10-21T09:40:31.926Z,64.98
2018-10-21T09:41:31.919Z,64.22
2018-10-21T09:42:31.774Z,63.64
2018-10-21T09:43:31.725Z,63.06
2018-10-21T09:44:31.623Z,64.12
2018-10-21T09:45:31.638Z,65.45
2018-10-21T09:46:31.541Z,65.65
2018-10-21T09:47:31.441Z,64.50
2018-10-21T09:48:31.312Z,64.22
2018-10-21T09:49:31.358Z,63.64
2018-10-21T09:50:31.163Z,63.93
2018-10-21T09:51:31.163Z,63.86
2018-10-21T09:52:31.013Z,63.76
2018-10-21T09:53:30.974Z,64.34
2018-10-21T09:54:30.862Z,62.81
2018-10-21T09:55:30.884Z,63.86
2018-10-21T09:56:30.706Z,62.81
2018-10-21T09:57:30.697Z,62.33
2018-10-21T09:58:30.587Z,63.13
2018-10-21T09:59:30.501Z,63.70
2018-10-21T10:00:30.406Z,63.60
2018-10-21T10:01:30.410Z,61.02
2018-10-21T10:02:30.301Z,60.64
2018-10-21T10:03:30.215Z,60.83
2018-10-21T10:04:30.107Z,62.62
2018-10-21T10:05:30.130Z,63.00
2018-10-21T10:06:29.957Z,62.87
2018-10-21T10:07:29.938Z,63.06
2018-10-21T10:08:29.808Z,63.54
2018-10-21T10:09:29.748Z,63.60
2018-10-21T10:10:29.653Z,63.89
2018-10-21T10:11:29.660Z,64.75
2018-10-21T10:12:29.506Z,65.04
2018-10-21T10:13:29.472Z,64.98
2018-10-21T10:14:29.351Z,64.69
2018-10-21T10:15:29.377Z,64.98
2018-10-21T10:16:29.199Z,65.30
2018-10-21T10:17:29.210Z,65.58
2018-10-21T10:18:29.046Z,62.90
2018-10-21T10:19:28.996Z,62.14
2018-10-21T10:20:28.898Z,62.90
2018-10-21T10:21:28.906Z,63.67
2018-10-21T10:22:28.752Z,65.20
2018-10-21T10:23:28.775Z,64.72
2018-10-21T10:24:28.602Z,63.00
2018-10-21T10:25:28.626Z,62.55
2018-10-21T10:26:28.450Z,61.21
2018-10-21T10:27:28.435Z,61.69
2018-10-21T10:28:28.296Z,61.88
2018-10-21T10:29:28.358Z,61.11
2018-10-21T10:30:28.190Z,62.17
2018-10-21T10:31:28.154Z,61.02
2018-10-21T10:32:28.000Z,61.11
2018-10-21T10:33:27.962Z,60.89
2018-10-21T10:34:27.848Z,61.76
2018-10-21T10:35:27.874Z,62.23
2018-10-21T10:36:27.703Z,61.94
2018-10-21T10:37:27.682Z,62.62
2018-10-21T10:38:27.546Z,62.33
2018-10-21T10:39:27.491Z,61.76
2018-10-21T10:40:27.398Z,61.47
2018-10-21T10:41:27.395Z,61.18
2018-10-21T10:42:27.248Z,60.93
2018-10-21T10:43:27.238Z,61.21
2018-10-21T10:44:27.096Z,60.44
2018-10-21T10:45:27.120Z,60.35
2018-10-21T10:46:26.949Z,61.11
2018-10-21T10:47:26.932Z,60.96
2018-10-21T10:48:26.805Z,60.57
2018-10-21T10:49:26.842Z,60.00
2018-10-21T10:50:26.649Z,59.64
2018-10-21T10:51:26.648Z,59.16
2018-10-21T10:52:26.499Z,59.06
2018-10-21T10:53:26.459Z,59.93
2018-10-21T10:54:26.357Z,59.64
2018-10-21T10:55:26.367Z,58.59
2018-10-21T10:56:26.203Z,58.20
2018-10-21T10:57:26.177Z,58.08
2018-10-21T10:58:26.052Z,57.70
2018-10-21T10:59:26.105Z,59.04
2018-10-21T11:00:25.903Z,58.46
2018-10-21T11:01:25.896Z,56.32
2018-10-21T11:02:25.756Z,57.28
2018-10-21T11:03:25.706Z,58.53
2018-10-21T11:04:25.611Z,58.75
2018-10-21T11:05:25.615Z,58.37
2018-10-21T11:06:25.542Z,57.70
2018-10-21T11:07:25.424Z,57.98
2018-10-21T11:08:25.305Z,56.74
2018-10-21T11:09:25.334Z,56.93
2018-10-21T11:10:25.158Z,57.48
2018-10-21T11:11:25.147Z,59.01
2018-10-21T11:12:25.012Z,58.15
2018-10-21T11:13:24.933Z,57.86
2018-10-21T11:14:24.860Z,58.22
2018-10-21T11:15:24.864Z,58.98
2018-10-21T11:16:24.712Z,59.75
2018-10-21T11:17:24.676Z,58.12
2018-10-21T11:18:24.563Z,57.57
2018-10-21T11:19:24.587Z,56.90
2018-10-21T11:20:24.410Z,57.48
2018-10-21T11:21:24.393Z,57.19
2018-10-21T11:22:24.379Z,57.57
2018-10-21T11:23:24.301Z,56.32
2018-10-21T11:24:24.119Z,56.90
2018-10-21T11:25:24.115Z,57.76
2018-10-21T11:26:23.969Z,56.90
2018-10-21T11:27:23.921Z,57.76
2018-10-21T11:28:23.819Z,58.15
2018-10-21T11:29:23.837Z,56.99
2018-10-21T11:30:23.672Z,57.76
2018-10-21T11:31:23.644Z,57.67
2018-10-21T11:32:23.519Z,58.15
2018-10-21T11:33:23.553Z,58.56
2018-10-21T11:34:23.374Z,58.65
2018-10-21T11:35:23.361Z,58.39
2018-10-21T11:36:23.225Z,58.01
2018-10-21T11:37:23.215Z,57.85
2018-10-21T11:38:23.076Z,57.37
2018-10-21T11:39:23.077Z,57.75
2018-10-21T11:40:22.924Z,57.59
2018-10-21T11:41:22.891Z,57.78
2018-10-21T11:42:22.777Z,55.57
2018-10-21T11:43:22.803Z,55.77
2018-10-21T11:44:22.630Z,55.10
2018-10-21T11:45:22.610Z,55.47
2018-10-21T11:46:22.503Z,55.00
2018-10-21T11:47:22.518Z,54.42
2018-10-21T11:48:22.335Z,55.00
2018-10-21T11:49:22.330Z,55.29
2018-10-21T11:50:22.189Z,54.52
2018-10-21T11:51:22.144Z,55.26
2018-10-21T11:52:22.047Z,54.97
2018-10-21T11:53:22.047Z,55.16
2018-10-21T11:54:21.889Z,55.16
2018-10-21T11:55:21.854Z,56.67
2018-10-21T11:56:21.742Z,56.29
2018-10-21T11:57:21.765Z,57.06
2018-10-21T11:58:21.592Z,57.72
2018-10-21T11:59:21.582Z,57.98
2018-10-21T12:00:21.441Z,58.56
2018-10-21T12:01:21.481Z,57.89
2018-10-21T12:02:21.310Z,57.89
2018-10-21T12:03:21.299Z,57.89
2018-10-21T12:04:21.147Z,57.98
2018-10-21T12:05:21.103Z,58.84
2018-10-21T12:06:21.002Z,58.46
2018-10-21T12:07:21.016Z,59.13
2018-10-21T12:08:20.849Z,57.60
2018-10-21T12:09:20.824Z,57.79
2018-10-21T12:10:20.703Z,57.50
2018-10-21T12:11:20.732Z,55.78
2018-10-21T12:12:20.554Z,55.87
2018-10-21T12:13:20.542Z,54.82
2018-10-21T12:14:20.405Z,54.82
2018-10-21T12:15:20.329Z,54.72
2018-10-21T12:16:20.280Z,55.01
2018-10-21T12:17:20.179Z,54.44
2018-10-21T12:18:20.110Z,55.01
2018-10-21T12:19:20.031Z,54.63
2018-10-21T12:20:19.974Z,54.91
2018-10-21T12:21:19.881Z,54.91
2018-10-21T12:22:19.993Z,55.01
2018-10-21T12:23:19.770Z,55.30
2018-10-21T12:24:19.695Z,55.01
2018-10-21T12:25:19.714Z,54.24
2018-10-21T12:26:19.523Z,54.91
2018-10-21T12:27:19.436Z,55.21
2018-10-21T12:28:19.472Z,55.21
2018-10-21T12:29:19.382Z,54.91
2018-10-21T12:30:19.223Z,54.24
2018-10-21T12:31:19.241Z,54.34
2018-10-21T12:32:19.069Z,53.67
2018-10-21T12:33:18.985Z,53.67
2018-10-21T12:34:19.009Z,53.48
2018-10-21T12:35:18.902Z,53.77
2018-10-21T12:36:18.776Z,52.23
2018-10-21T12:37:18.690Z,51.75
2018-10-21T12:38:18.623Z,51.46
2018-10-21T12:39:18.538Z,51.15
2018-10-21T12:40:18.534Z,51.34
2018-10-21T12:41:18.442Z,50.96
2018-10-21T12:42:18.327Z,51.15
2018-10-21T12:43:18.282Z,51.63
2018-10-21T12:44:18.176Z,51.63
2018-10-21T12:45:18.110Z,52.59
2018-10-21T12:46:18.029Z,51.92
2018-10-21T12:47:18.010Z,51.85
2018-10-21T12:48:17.879Z,51.92
2018-10-21T12:49:17.865Z,52.14
2018-10-21T12:50:17.730Z,52.23
2018-10-21T12:51:17.649Z,52.23